createdAt,value
2022-07-31T00:02:11.874Z,16.71
2022-07-31T00:04:44.541Z,16.72
2022-07-31T00:07:14.889Z,16.62
2022-07-31T00:09:53.905Z,16.54
2022-07-31T00:12:25.525Z,16.52
2022-07-31T00:14:55.526Z,16.51
2022-07-31T00:17:25.660Z,16.49
2022-07-31T00:19:58.322Z,16.44
2022-07-31T00:22:28.637Z,16.38
2022-07-31T00:24:58.602Z,16.37
2022-07-31T00:27:28.923Z,16.25
2022-07-31T00:29:58.941Z,16.20
2022-07-31T00:32:29.268Z,16.19
2022-07-31T00:35:02.213Z,16.19
2022-07-31T00:37:32.768Z,16.15
2022-07-31T00:40:02.691Z,16.14
2022-07-31T00:42:32.667Z,16.24
2022-07-31T00:45:02.878Z,16.29
2022-07-31T00:47:32.854Z,16.29
2022-07-31T00:50:07.539Z,16.45
2022-07-31T00:52:37.618Z,16.54
2022-07-31T00:55:09.069Z,16.67
2022-07-31T00:57:39.776Z,16.62
2022-07-31T01:00:13.680Z,16.78
2022-07-31T01:02:46.594Z,16.75
2022-07-31T01:05:19.461Z,16.68
2022-07-31T01:07:49.787Z,16.43
2022-07-31T01:10:43.883Z,16.34
2022-07-31T01:13:25.179Z,16.29
2022-07-31T01:15:59.460Z,16.15
2022-07-31T01:18:35.712Z,16.06
2022-07-31T01:21:14.239Z,16.01
2022-07-31T01:24:12.010Z,15.97
2022-07-31T01:27:49.711Z,15.86
2022-07-31T01:30:30.741Z,15.73
2022-07-31T01:33:11.298Z,15.61
2022-07-31T01:35:48.697Z,15.69
2022-07-31T01:38:25.837Z,15.56
2022-07-31T01:41:04.622Z,15.47
2022-07-31T01:43:40.676Z,15.45
2022-07-31T01:46:19.700Z,15.38
2022-07-31T01:48:52.636Z,15.37
2022-07-31T01:51:25.623Z,15.31
2022-07-31T01:53:58.584Z,15.32
2022-07-31T01:56:31.735Z,15.34
2022-07-31T01:59:03.682Z,15.20
2022-07-31T02:02:04.863Z,15.19
2022-07-31T02:04:37.730Z,15.10
2022-07-31T02:07:09.953Z,15.14
2022-07-31T02:09:52.267Z,15.10
2022-07-31T02:12:32.116Z,15.09
2022-07-31T02:15:05.911Z,14.98
2022-07-31T02:17:41.449Z,15.02
2022-07-31T02:20:23.557Z,15.05
2022-07-31T02:22:57.295Z,14.95
2022-07-31T02:25:28.596Z,14.88
2022-07-31T02:28:03.250Z,14.82
2022-07-31T02:30:39.288Z,14.78
2022-07-31T02:33:20.834Z,14.73
2022-07-31T02:36:24.948Z,14.65
2022-07-31T02:38:57.589Z,14.67
2022-07-31T02:41:29.086Z,14.66
2022-07-31T02:44:01.580Z,14.66
2022-07-31T02:46:34.046Z,14.61
2022-07-31T02:49:07.190Z,14.67
2022-07-31T02:51:42.904Z,14.69
2022-07-31T02:54:14.553Z,14.92
2022-07-31T02:56:46.650Z,15.39
2022-07-31T02:59:16.764Z,15.57
2022-07-31T03:02:00.093Z,15.54
2022-07-31T03:04:38.906Z,15.44
2022-07-31T03:07:08.974Z,15.14
2022-07-31T03:09:39.968Z,14.97
2022-07-31T03:12:28.333Z,14.88
2022-07-31T03:14:59.598Z,14.74
2022-07-31T03:17:40.800Z,14.56
2022-07-31T03:20:18.271Z,14.58
2022-07-31T03:22:49.414Z,14.60
2022-07-31T03:25:21.835Z,14.57
2022-07-31T03:27:56.220Z,14.51
2022-07-31T03:30:27.802Z,14.40
2022-07-31T03:33:03.427Z,14.38
2022-07-31T03:35:39.854Z,14.34
2022-07-31T03:38:41.318Z,14.31
2022-07-31T03:41:07.344Z,14.26
2022-07-31T03:43:47.112Z,14.26
2022-07-31T03:46:23.875Z,14.24
2022-07-31T03:48:54.901Z,14.25
2022-07-31T03:51:31.747Z,14.28
2022-07-31T03:54:02.205Z,14.34
2022-07-31T03:56:49.962Z,14.45
2022-07-31T03:59:23.390Z,14.45
2022-07-31T04:01:58.018Z,14.42
2022-07-31T04:04:45.429Z,14.35
2022-07-31T04:07:18.453Z,14.37
2022-07-31T04:09:48.512Z,14.47
2022-07-31T04:12:19.023Z,14.53
2022-07-31T04:14:49.271Z,14.66
2022-07-31T04:17:20.406Z,14.75
2022-07-31T04:19:50.511Z,14.81
2022-07-31T04:22:23.126Z,14.97
2022-07-31T04:24:53.350Z,15.04
2022-07-31T04:27:34.746Z,15.19
2022-07-31T04:30:18.573Z,15.26
2022-07-31T04:32:50.645Z,15.20
2022-07-31T04:35:25.113Z,15.46
2022-07-31T04:37:57.798Z,15.71
2022-07-31T04:40:29.418Z,15.93
2022-07-31T04:42:59.439Z,15.97
2022-07-31T04:45:29.575Z,16.12
2022-07-31T04:47:59.677Z,16.52
2022-07-31T04:50:29.893Z,17.16
2022-07-31T04:53:04.161Z,17.85
2022-07-31T04:55:41.065Z,18.62
2022-07-31T04:58:11.198Z,19.38
2022-07-31T05:00:41.692Z,20.06
2022-07-31T05:03:11.770Z,20.71
2022-07-31T05:05:45.378Z,21.28
2022-07-31T05:08:18.066Z,21.70
2022-07-31T05:11:02.324Z,22.11
2022-07-31T05:13:33.518Z,22.37
2022-07-31T05:16:03.536Z,22.62
2022-07-31T05:18:33.620Z,22.96
2022-07-31T05:21:51.370Z,23.16
2022-07-31T05:24:33.260Z,23.69
2022-07-31T05:27:11.758Z,24.04
2022-07-31T05:29:44.356Z,23.99
2022-07-31T05:32:14.768Z,24.42
2022-07-31T05:34:45.146Z,24.88
2022-07-31T05:37:15.213Z,25.00
2022-07-31T05:39:47.784Z,24.92
2022-07-31T05:42:36.229Z,24.38
2022-07-31T05:45:26.624Z,24.07
2022-07-31T05:47:56.717Z,23.77
2022-07-31T05:50:26.885Z,23.18
2022-07-31T05:52:56.896Z,22.74
2022-07-31T05:55:57.493Z,22.60
2022-07-31T05:58:48.356Z,22.62
2022-07-31T06:01:19.264Z,22.38
2022-07-31T06:03:52.245Z,22.34
2022-07-31T06:06:31.237Z,22.25
2022-07-31T06:09:04.420Z,22.22
2022-07-31T06:11:41.496Z,22.27
2022-07-31T06:14:12.203Z,22.42
2022-07-31T06:17:11.406Z,22.71
2022-07-31T06:19:42.307Z,22.90
2022-07-31T06:22:13.972Z,23.02
2022-07-31T06:24:43.918Z,23.12
2022-07-31T06:27:34.019Z,23.21
2022-07-31T06:30:05.914Z,23.07
2022-07-31T06:32:36.213Z,23.07
2022-07-31T06:35:07.834Z,23.15
2022-07-31T06:37:51.424Z,23.18
2022-07-31T06:40:22.509Z,23.18
2022-07-31T06:43:16.010Z,23.21
2022-07-31T06:46:16.594Z,23.42
2022-07-31T06:49:08.935Z,23.50
2022-07-31T06:51:39.652Z,23.66
2022-07-31T06:54:13.308Z,23.95
2022-07-31T06:56:43.711Z,24.28
2022-07-31T06:59:39.266Z,24.47
2022-07-31T07:02:08.730Z,24.56
2022-07-31T07:05:00.774Z,24.78
2022-07-31T07:07:31.941Z,25.02
2022-07-31T07:10:04.672Z,25.13
2022-07-31T07:13:00.724Z,25.23
2022-07-31T07:15:37.797Z,25.29
2022-07-31T07:18:09.706Z,25.35
2022-07-31T07:20:53.703Z,25.47
2022-07-31T07:23:25.341Z,25.94
2022-07-31T07:26:11.216Z,26.20
2022-07-31T07:28:41.856Z,26.42
2022-07-31T07:31:15.528Z,27.16
2022-07-31T07:33:45.666Z,28.08
2022-07-31T07:36:23.814Z,28.32
2022-07-31T07:38:59.525Z,29.00
2022-07-31T07:41:30.332Z,29.06
2022-07-31T07:44:00.484Z,29.04
2022-07-31T07:46:34.463Z,29.63
2022-07-31T07:49:07.645Z,29.60
2022-07-31T07:51:59.680Z,29.68
2022-07-31T07:54:43.291Z,29.78
2022-07-31T07:57:26.770Z,29.62
2022-07-31T08:00:13.775Z,29.86
2022-07-31T08:03:50.125Z,29.82
2022-07-31T08:05:43.818Z,29.95
2022-07-31T08:08:13.989Z,30.28
2022-07-31T08:10:50.138Z,29.75
2022-07-31T08:13:31.472Z,30.00
2022-07-31T08:16:20.795Z,30.26
2022-07-31T08:18:57.167Z,30.54
2022-07-31T08:21:28.319Z,30.55
2022-07-31T08:23:58.613Z,30.96
2022-07-31T08:26:48.788Z,31.08
2022-07-31T08:29:19.233Z,31.03
2022-07-31T08:32:00.585Z,30.46
2022-07-31T08:34:51.842Z,30.21
2022-07-31T08:38:01.603Z,30.17
2022-07-31T08:40:13.920Z,29.66
2022-07-31T08:42:44.109Z,30.61
2022-07-31T08:45:15.953Z,31.09
2022-07-31T08:47:52.050Z,30.61
2022-07-31T08:50:32.744Z,30.42
2022-07-31T08:53:06.766Z,30.92
2022-07-31T08:55:55.464Z,31.10
2022-07-31T08:58:27.687Z,31.42
2022-07-31T09:00:58.574Z,32.09
2022-07-31T09:03:28.743Z,33.03
2022-07-31T09:06:06.938Z,33.63
2022-07-31T09:08:39.284Z,34.59
2022-07-31T09:11:14.872Z,35.20
2022-07-31T09:14:30.733Z,36.11
2022-07-31T09:17:01.537Z,36.40
2022-07-31T09:19:52.397Z,37.07
2022-07-31T09:22:32.663Z,37.38
2022-07-31T09:25:16.232Z,37.18
2022-07-31T09:27:47.383Z,37.16
2022-07-31T09:30:18.833Z,37.22
2022-07-31T09:33:19.744Z,37.31
2022-07-31T09:36:16.881Z,37.44
2022-07-31T09:38:56.414Z,37.75
2022-07-31T09:42:01.979Z,38.17
2022-07-31T09:45:05.745Z,37.98
2022-07-31T09:47:37.811Z,38.25
2022-07-31T09:50:10.184Z,39.01
2022-07-31T09:52:40.222Z,39.22
2022-07-31T09:55:17.074Z,39.21
2022-07-31T09:57:57.629Z,39.87
2022-07-31T10:00:31.858Z,40.15
2022-07-31T10:03:05.403Z,39.60
2022-07-31T10:05:38.182Z,39.65
2022-07-31T10:08:09.244Z,38.70
2022-07-31T10:10:57.209Z,37.16
2022-07-31T10:13:33.592Z,36.88
2022-07-31T10:16:05.340Z,36.15
2022-07-31T10:19:11.954Z,37.34
2022-07-31T10:22:04.177Z,38.72
2022-07-31T10:24:48.205Z,39.05
2022-07-31T10:27:21.922Z,39.09
2022-07-31T10:30:02.448Z,39.27
2022-07-31T10:32:32.741Z,39.41
2022-07-31T10:35:55.704Z,38.85
2022-07-31T10:39:10.634Z,38.37
2022-07-31T10:42:06.429Z,38.96
2022-07-31T10:44:53.686Z,39.28
2022-07-31T10:48:04.409Z,40.25
2022-07-31T10:51:05.287Z,40.67
2022-07-31T10:53:59.517Z,41.72
2022-07-31T10:56:50.235Z,42.97
2022-07-31T10:59:32.544Z,42.70
2022-07-31T11:02:37.402Z,40.59
2022-07-31T11:05:28.031Z,41.02
2022-07-31T11:08:14.388Z,39.76
2022-07-31T11:10:54.751Z,38.75
2022-07-31T11:13:50.424Z,38.40
2022-07-31T11:16:52.599Z,37.89
2022-07-31T11:19:46.286Z,36.99
2022-07-31T11:22:31.771Z,36.99
2022-07-31T11:25:03.134Z,37.18
2022-07-31T11:27:33.907Z,37.11
2022-07-31T11:30:13.518Z,37.32
2022-07-31T11:32:44.241Z,36.58
2022-07-31T11:35:28.908Z,36.27
2022-07-31T11:37:59.954Z,36.37
2022-07-31T11:40:30.435Z,36.71
2022-07-31T11:43:25.299Z,36.59
2022-07-31T11:45:55.135Z,37.24
2022-07-31T11:48:28.025Z,38.67
2022-07-31T11:51:01.996Z,40.12
2022-07-31T11:53:32.694Z,39.31
2022-07-31T11:56:04.184Z,38.91
2022-07-31T11:58:34.192Z,40.34
2022-07-31T12:01:07.372Z,41.22
2022-07-31T12:03:40.006Z,41.02
2022-07-31T12:06:14.210Z,40.96
2022-07-31T12:08:44.990Z,41.25
2022-07-31T12:11:15.162Z,41.84
2022-07-31T12:13:49.550Z,42.26
2022-07-31T12:16:21.611Z,41.81
2022-07-31T12:18:55.046Z,40.89
2022-07-31T12:21:35.941Z,39.60
2022-07-31T12:24:13.710Z,38.53
2022-07-31T12:26:52.833Z,38.04
2022-07-31T12:29:33.914Z,38.14
2022-07-31T12:32:04.481Z,38.75
2022-07-31T12:34:38.326Z,39.27
2022-07-31T12:37:16.742Z,40.48
2022-07-31T12:40:00.859Z,40.59
2022-07-31T12:42:40.672Z,41.69
2022-07-31T12:45:19.947Z,39.50
2022-07-31T12:47:52.741Z,39.06
2022-07-31T12:50:23.651Z,40.23
2022-07-31T12:52:57.101Z,41.77
2022-07-31T12:55:27.148Z,42.74
2022-07-31T12:57:57.172Z,43.72
2022-07-31T13:00:30.227Z,43.31
2022-07-31T13:03:00.984Z,43.16
2022-07-31T13:05:30.971Z,41.83
2022-07-31T13:08:03.557Z,40.72
2022-07-31T13:10:33.818Z,41.53
2022-07-31T13:13:04.583Z,40.48
2022-07-31T13:15:34.525Z,40.63
2022-07-31T13:18:05.112Z,40.02
2022-07-31T13:20:35.436Z,38.82
2022-07-31T13:23:08.085Z,38.05
2022-07-31T13:25:38.171Z,37.20
2022-07-31T13:28:08.390Z,36.22
2022-07-31T13:30:38.346Z,36.28
2022-07-31T13:33:08.402Z,37.90
2022-07-31T13:35:38.558Z,38.96
2022-07-31T13:38:12.830Z,40.07
2022-07-31T13:40:55.362Z,40.81
2022-07-31T13:43:25.528Z,39.35
2022-07-31T13:45:55.463Z,37.40
2022-07-31T13:48:25.632Z,37.66
2022-07-31T13:50:55.633Z,38.11
2022-07-31T13:53:28.224Z,40.00
2022-07-31T13:55:58.791Z,41.38
2022-07-31T13:58:29.862Z,41.37
2022-07-31T14:01:04.331Z,41.91
2022-07-31T14:03:35.379Z,42.03
2022-07-31T14:06:07.144Z,41.03
2022-07-31T14:08:50.448Z,40.93
2022-07-31T14:11:20.848Z,41.59
2022-07-31T14:13:50.857Z,42.14
2022-07-31T14:16:20.826Z,40.73
2022-07-31T14:18:50.956Z,40.58
2022-07-31T14:21:20.961Z,38.64
2022-07-31T14:23:53.533Z,37.69
2022-07-31T14:26:23.598Z,37.71
2022-07-31T14:28:53.614Z,37.41
2022-07-31T14:31:23.624Z,36.93
2022-07-31T14:33:53.601Z,36.00
2022-07-31T14:36:23.570Z,35.79
2022-07-31T14:38:56.097Z,35.93
2022-07-31T14:41:26.201Z,35.23
2022-07-31T14:43:56.117Z,35.24
2022-07-31T14:46:26.104Z,34.73
2022-07-31T14:48:56.099Z,36.66
2022-07-31T14:51:26.158Z,36.23
2022-07-31T14:54:06.118Z,36.86
2022-07-31T14:56:59.557Z,36.33
2022-07-31T14:59:26.096Z,37.20
2022-07-31T15:01:56.181Z,37.04
2022-07-31T15:04:26.602Z,36.58
2022-07-31T15:07:13.162Z,36.40
2022-07-31T15:09:49.207Z,36.46
2022-07-31T15:12:19.900Z,36.15
2022-07-31T15:14:49.940Z,35.46
2022-07-31T15:17:19.962Z,35.73
2022-07-31T15:19:49.935Z,34.98
2022-07-31T15:22:20.122Z,34.89
2022-07-31T15:24:53.088Z,37.69
2022-07-31T15:27:24.945Z,37.73
2022-07-31T15:30:03.517Z,36.90
2022-07-31T15:32:40.158Z,36.02
2022-07-31T15:35:14.067Z,35.38
2022-07-31T15:37:46.947Z,34.67
2022-07-31T15:40:20.571Z,34.01
2022-07-31T15:42:50.634Z,35.07
2022-07-31T15:45:23.072Z,36.72
2022-07-31T15:47:53.076Z,36.75
2022-07-31T15:50:23.086Z,36.15
2022-07-31T15:52:54.052Z,35.12
2022-07-31T15:55:26.686Z,34.48
2022-07-31T15:57:56.668Z,33.92
2022-07-31T16:00:27.649Z,34.89
2022-07-31T16:02:57.702Z,35.59
2022-07-31T16:05:35.945Z,36.40
2022-07-31T16:08:30.537Z,37.17
2022-07-31T16:10:59.995Z,36.73
2022-07-31T16:13:31.442Z,35.98
2022-07-31T16:16:01.891Z,36.02
2022-07-31T16:18:32.185Z,36.24
2022-07-31T16:21:02.201Z,34.54
2022-07-31T16:23:32.338Z,35.52
2022-07-31T16:26:04.901Z,37.38
2022-07-31T16:28:34.958Z,37.64
2022-07-31T16:31:04.972Z,38.27
2022-07-31T16:33:34.955Z,38.11
2022-07-31T16:36:04.924Z,36.85
2022-07-31T16:38:34.937Z,34.54
2022-07-31T16:41:07.493Z,35.14
2022-07-31T16:43:50.737Z,34.54
2022-07-31T16:46:21.601Z,34.16
2022-07-31T16:48:51.653Z,35.92
2022-07-31T16:51:21.757Z,37.31
2022-07-31T16:54:13.818Z,38.51
2022-07-31T16:56:44.615Z,35.09
2022-07-31T16:59:14.694Z,33.88
2022-07-31T17:01:58.848Z,33.48
2022-07-31T17:04:31.277Z,33.40
2022-07-31T17:07:02.316Z,33.05
2022-07-31T17:09:33.593Z,33.70
2022-07-31T17:12:07.586Z,33.14
2022-07-31T17:14:38.919Z,32.03
2022-07-31T17:17:09.109Z,31.63
2022-07-31T17:19:45.350Z,31.53
2022-07-31T17:22:17.935Z,31.76
2022-07-31T17:24:51.883Z,31.30
2022-07-31T17:27:25.025Z,31.28
2022-07-31T17:29:55.446Z,31.79
2022-07-31T17:32:25.490Z,31.70
2022-07-31T17:34:55.702Z,31.34
2022-07-31T17:37:26.110Z,31.26
2022-07-31T17:39:58.021Z,30.90
2022-07-31T17:42:30.844Z,30.86
2022-07-31T17:45:02.144Z,30.96
2022-07-31T17:47:33.665Z,30.73
2022-07-31T17:50:03.662Z,30.61
2022-07-31T17:52:33.792Z,30.63
2022-07-31T17:55:03.794Z,30.28
2022-07-31T17:57:36.551Z,30.29
2022-07-31T18:00:10.028Z,30.12
2022-07-31T18:02:40.483Z,30.01
2022-07-31T18:05:12.066Z,29.90
2022-07-31T18:07:42.194Z,29.89
2022-07-31T18:10:13.925Z,29.66
2022-07-31T18:12:57.492Z,29.48
2022-07-31T18:15:34.872Z,29.85
2022-07-31T18:18:06.319Z,29.56
2022-07-31T18:20:36.898Z,29.38
2022-07-31T18:23:07.006Z,29.17
2022-07-31T18:25:40.924Z,28.92
2022-07-31T18:28:13.494Z,28.89
2022-07-31T18:30:44.113Z,28.74
2022-07-31T18:33:14.369Z,28.68
2022-07-31T18:35:44.361Z,28.78
2022-07-31T18:38:15.167Z,28.67
2022-07-31T18:40:45.207Z,28.66
2022-07-31T18:43:17.809Z,28.58
2022-07-31T18:45:47.847Z,28.47
2022-07-31T18:48:18.101Z,28.38
2022-07-31T18:50:58.697Z,28.13
2022-07-31T18:53:32.506Z,27.98
2022-07-31T18:56:02.793Z,27.93
2022-07-31T18:58:36.196Z,27.82
2022-07-31T19:01:06.504Z,27.70
2022-07-31T19:03:36.448Z,27.62
2022-07-31T19:06:07.101Z,27.55
2022-07-31T19:08:37.110Z,27.54
2022-07-31T19:11:07.539Z,27.54
2022-07-31T19:13:40.173Z,27.57
2022-07-31T19:16:10.242Z,27.58
2022-07-31T19:18:41.508Z,27.49
2022-07-31T19:21:23.047Z,27.40
2022-07-31T19:24:04.122Z,27.24
2022-07-31T19:26:34.516Z,27.14
2022-07-31T19:29:07.814Z,26.98
2022-07-31T19:31:38.175Z,26.90
2022-07-31T19:34:08.417Z,26.81
2022-07-31T19:36:38.590Z,26.72
2022-07-31T19:39:08.901Z,26.43
2022-07-31T19:41:39.007Z,26.14
2022-07-31T19:44:13.666Z,26.10
2022-07-31T19:46:43.864Z,25.85
2022-07-31T19:49:13.907Z,25.64
2022-07-31T19:51:44.461Z,25.58
2022-07-31T19:54:14.409Z,25.41
2022-07-31T19:56:44.479Z,25.24
2022-07-31T19:59:20.550Z,25.06
2022-07-31T20:01:50.685Z,25.00
2022-07-31T20:04:21.277Z,24.87
2022-07-31T20:06:52.870Z,24.85
2022-07-31T20:09:24.205Z,24.82
2022-07-31T20:11:54.287Z,24.78
2022-07-31T20:14:26.873Z,24.63
2022-07-31T20:16:56.843Z,24.50
2022-07-31T20:19:26.830Z,24.40
2022-07-31T20:21:57.587Z,24.37
2022-07-31T20:24:29.865Z,24.34
2022-07-31T20:27:00.310Z,24.28
2022-07-31T20:29:33.560Z,24.20
2022-07-31T20:32:04.251Z,24.13
2022-07-31T20:34:34.493Z,24.06
2022-07-31T20:37:06.319Z,24.00
2022-07-31T20:39:36.292Z,23.98
2022-07-31T20:42:07.385Z,23.88
2022-07-31T20:44:42.741Z,23.79
2022-07-31T20:47:12.749Z,23.69
2022-07-31T20:49:43.012Z,23.52
2022-07-31T20:52:13.021Z,23.47
2022-07-31T20:54:43.034Z,23.41
2022-07-31T20:57:13.006Z,23.33
2022-07-31T20:59:45.566Z,23.18
2022-07-31T21:02:15.573Z,23.12
2022-07-31T21:04:45.713Z,23.13
2022-07-31T21:07:15.799Z,23.08
2022-07-31T21:09:46.068Z,23.05
2022-07-31T21:12:16.134Z,22.96
2022-07-31T21:14:48.842Z,22.86
2022-07-31T21:17:18.817Z,22.83
2022-07-31T21:19:48.811Z,22.80
2022-07-31T21:22:18.850Z,22.78
2022-07-31T21:24:49.701Z,22.79
2022-07-31T21:27:21.241Z,22.75
2022-07-31T21:29:56.968Z,22.65
2022-07-31T21:32:28.070Z,22.57
2022-07-31T21:34:59.461Z,22.49
2022-07-31T21:37:39.100Z,22.47
2022-07-31T21:40:12.655Z,22.61
2022-07-31T21:42:43.826Z,22.53
2022-07-31T21:45:18.496Z,22.48
2022-07-31T21:47:53.133Z,22.52
2022-07-31T21:50:29.113Z,22.44
2022-07-31T21:52:59.672Z,22.45
2022-07-31T21:55:29.762Z,22.52
2022-07-31T21:58:00.173Z,22.35
2022-07-31T22:00:34.239Z,22.33
2022-07-31T22:03:06.694Z,22.25
2022-07-31T22:05:49.611Z,22.26
2022-07-31T22:08:20.410Z,22.30
2022-07-31T22:10:52.313Z,22.20
2022-07-31T22:13:23.021Z,22.29
2022-07-31T22:15:59.997Z,22.29
2022-07-31T22:18:36.627Z,22.17
2022-07-31T22:21:10.429Z,22.24
2022-07-31T22:23:41.659Z,22.21
2022-07-31T22:26:13.125Z,22.15
2022-07-31T22:28:44.388Z,22.09
2022-07-31T22:31:17.885Z,22.04
2022-07-31T22:33:48.337Z,22.02
2022-07-31T22:36:19.000Z,22.02
2022-07-31T22:38:52.198Z,21.89
2022-07-31T22:41:22.488Z,21.71
2022-07-31T22:44:12.995Z,21.76
2022-07-31T22:46:48.601Z,21.55
2022-07-31T22:49:19.275Z,21.59
2022-07-31T22:51:49.605Z,21.55
2022-07-31T22:54:19.772Z,21.51
2022-07-31T22:56:49.786Z,21.38
2022-07-31T22:59:20.032Z,21.31
2022-07-31T23:01:52.902Z,21.34
2022-07-31T23:04:22.911Z,21.27
2022-07-31T23:06:53.306Z,21.15
2022-07-31T23:09:23.282Z,21.06
2022-07-31T23:11:53.373Z,20.82
2022-07-31T23:14:23.705Z,20.83
2022-07-31T23:16:56.297Z,20.73
2022-07-31T23:19:26.748Z,20.82
2022-07-31T23:21:56.727Z,20.85
2022-07-31T23:24:26.805Z,20.71
2022-07-31T23:26:56.801Z,20.56
2022-07-31T23:29:26.864Z,20.47
2022-07-31T23:31:59.409Z,20.41
2022-07-31T23:34:29.374Z,20.37
2022-07-31T23:36:59.749Z,20.38
2022-07-31T23:39:29.808Z,20.23
2022-07-31T23:42:12.399Z,20.21
2022-07-31T23:44:42.686Z,20.15
2022-07-31T23:47:18.896Z,20.17
2022-07-31T23:49:49.830Z,20.01
2022-07-31T23:52:19.795Z,20.17
2022-07-31T23:54:49.772Z,20.08
2022-07-31T23:57:19.860Z,20.04
2022-07-31T23:59:50.010Z,19.98
